sensor_id;sensor_type;location;lat;lon;timestamp;P1;durP1;ratioP1;P2;durP2;ratioP2
17892;SDS011;9072;51.918;4.380;2024-01-16T00:01:07;4.60;;;1.70;;
17892;SDS011;9072;51.918;4.380;2024-01-16T00:03:35;5.90;;;1.70;;
17892;SDS011;9072;51.918;4.380;2024-01-16T00:06:02;4.70;;;1.60;;
17892;SDS011;9072;51.918;4.380;2024-01-16T00:08:34;3.73;;;1.60;;
17892;SDS011;9072;51.918;4.380;2024-01-16T00:11:02;3.50;;;1.30;;
17892;SDS011;9072;51.918;4.380;2024-01-16T00:13:31;6.17;;;1.83;;
17892;SDS011;9072;51.918;4.380;2024-01-16T00:16:01;8.00;;;2.03;;
17892;SDS011;9072;51.918;4.380;2024-01-16T00:18:29;5.83;;;1.53;;
17892;SDS011;9072;51.918;4.380;2024-01-16T00:20:57;7.23;;;1.80;;
17892;SDS011;9072;51.918;4.380;2024-01-16T00:23:24;5.10;;;1.63;;
17892;SDS011;9072;51.918;4.380;2024-01-16T00:25:51;8.43;;;1.60;;
17892;SDS011;9072;51.918;4.380;2024-01-16T00:28:19;6.63;;;1.67;;
17892;SDS011;9072;51.918;4.380;2024-01-16T00:30:52;7.70;;;1.60;;
17892;SDS011;9072;51.918;4.380;2024-01-16T00:33:19;7.03;;;1.63;;
17892;SDS011;9072;51.918;4.380;2024-01-16T00:35:47;5.03;;;1.63;;
17892;SDS011;9072;51.918;4.380;2024-01-16T00:38:14;3.70;;;1.60;;
17892;SDS011;9072;51.918;4.380;2024-01-16T00:40:42;8.73;;;1.80;;
17892;SDS011;9072;51.918;4.380;2024-01-16T00:43:09;8.77;;;1.90;;
17892;SDS011;9072;51.918;4.380;2024-01-16T00:45:39;7.27;;;2.00;;
17892;SDS011;9072;51.918;4.380;2024-01-16T00:48:08;12.53;;;2.27;;
17892;SDS011;9072;51.918;4.380;2024-01-16T00:50:38;5.13;;;1.70;;
17892;SDS011;9072;51.918;4.380;2024-01-16T00:53:05;9.90;;;1.87;;
17892;SDS011;9072;51.918;4.380;2024-01-16T00:55:32;12.47;;;2.40;;
17892;SDS011;9072;51.918;4.380;2024-01-16T00:57:59;8.17;;;2.00;;
17892;SDS011;9072;51.918;4.380;2024-01-16T01:00:27;4.83;;;2.17;;
17892;SDS011;9072;51.918;4.380;2024-01-16T01:02:56;5.80;;;1.90;;
17892;SDS011;9072;51.918;4.380;2024-01-16T01:05:25;8.63;;;1.90;;
17892;SDS011;9072;51.918;4.380;2024-01-16T01:07:53;7.67;;;2.67;;
17892;SDS011;9072;51.918;4.380;2024-01-16T01:10:21;7.20;;;2.10;;
17892;SDS011;9072;51.918;4.380;2024-01-16T01:12:48;12.63;;;2.20;;
17892;SDS011;9072;51.918;4.380;2024-01-16T01:15:16;9.23;;;2.60;;
17892;SDS011;9072;51.918;4.380;2024-01-16T01:17:47;8.03;;;2.10;;
17892;SDS011;9072;51.918;4.380;2024-01-16T01:20:15;7.20;;;1.77;;
17892;SDS011;9072;51.918;4.380;2024-01-16T01:22:45;9.63;;;2.23;;
17892;SDS011;9072;51.918;4.380;2024-01-16T01:25:13;10.30;;;2.33;;
17892;SDS011;9072;51.918;4.380;2024-01-16T01:27:40;6.87;;;2.10;;
17892;SDS011;9072;51.918;4.380;2024-01-16T01:30:07;8.93;;;2.00;;
17892;SDS011;9072;51.918;4.380;2024-01-16T01:32:35;8.07;;;2.30;;
17892;SDS011;9072;51.918;4.380;2024-01-16T01:35:04;15.67;;;3.33;;
17892;SDS011;9072;51.918;4.380;2024-01-16T01:37:32;13.17;;;2.80;;
17892;SDS011;9072;51.918;4.380;2024-01-16T01:40:01;17.53;;;3.63;;
17892;SDS011;9072;51.918;4.380;2024-01-16T01:42:28;13.97;;;2.70;;
17892;SDS011;9072;51.918;4.380;2024-01-16T01:44:56;10.90;;;3.20;;
17892;SDS011;9072;51.918;4.380;2024-01-16T01:47:23;16.40;;;3.73;;
17892;SDS011;9072;51.918;4.380;2024-01-16T01:49:51;12.90;;;3.17;;
17892;SDS011;9072;51.918;4.380;2024-01-16T01:52:18;9.17;;;2.90;;
17892;SDS011;9072;51.918;4.380;2024-01-16T01:54:45;12.30;;;3.37;;
17892;SDS011;9072;51.918;4.380;2024-01-16T01:57:15;10.37;;;2.73;;
17892;SDS011;9072;51.918;4.380;2024-01-16T01:59:43;20.23;;;3.00;;
17892;SDS011;9072;51.918;4.380;2024-01-16T02:02:11;14.53;;;3.00;;
17892;SDS011;9072;51.918;4.380;2024-01-16T02:04:38;12.07;;;2.90;;
17892;SDS011;9072;51.918;4.380;2024-01-16T02:07:07;15.40;;;3.40;;
17892;SDS011;9072;51.918;4.380;2024-01-16T02:09:34;11.97;;;2.50;;
17892;SDS011;9072;51.918;4.380;2024-01-16T02:12:03;9.70;;;3.03;;
17892;SDS011;9072;51.918;4.380;2024-01-16T02:14:32;11.63;;;3.10;;
17892;SDS011;9072;51.918;4.380;2024-01-16T02:16:59;7.57;;;2.67;;
17892;SDS011;9072;51.918;4.380;2024-01-16T02:19:29;11.77;;;2.80;;
17892;SDS011;9072;51.918;4.380;2024-01-16T02:21:57;11.67;;;2.47;;
17892;SDS011;9072;51.918;4.380;2024-01-16T02:24:28;9.60;;;2.83;;
17892;SDS011;9072;51.918;4.380;2024-01-16T02:26:55;12.10;;;3.33;;
17892;SDS011;9072;51.918;4.380;2024-01-16T02:29:23;7.23;;;2.53;;
17892;SDS011;9072;51.918;4.380;2024-01-16T02:31:50;9.83;;;2.50;;
17892;SDS011;9072;51.918;4.380;2024-01-16T02:34:18;8.20;;;2.60;;
17892;SDS011;9072;51.918;4.380;2024-01-16T02:36:45;9.53;;;2.90;;
17892;SDS011;9072;51.918;4.380;2024-01-16T02:39:12;9.23;;;2.90;;
17892;SDS011;9072;51.918;4.380;2024-01-16T02:41:41;9.80;;;2.70;;
17892;SDS011;9072;51.918;4.380;2024-01-16T02:44:08;9.03;;;2.50;;
17892;SDS011;9072;51.918;4.380;2024-01-16T02:46:35;8.10;;;2.73;;
17892;SDS011;9072;51.918;4.380;2024-01-16T02:49:04;7.83;;;2.50;;
17892;SDS011;9072;51.918;4.380;2024-01-16T02:51:32;6.60;;;2.23;;
17892;SDS011;9072;51.918;4.380;2024-01-16T02:53:59;6.13;;;2.50;;
17892;SDS011;9072;51.918;4.380;2024-01-16T02:56:26;9.97;;;2.40;;
17892;SDS011;9072;51.918;4.380;2024-01-16T02:58:57;11.13;;;3.07;;
17892;SDS011;9072;51.918;4.380;2024-01-16T03:01:24;10.03;;;2.40;;
17892;SDS011;9072;51.918;4.380;2024-01-16T03:03:52;7.10;;;2.20;;
17892;SDS011;9072;51.918;4.380;2024-01-16T03:06:23;10.67;;;2.50;;
17892;SDS011;9072;51.918;4.380;2024-01-16T03:08:50;6.00;;;2.30;;
17892;SDS011;9072;51.918;4.380;2024-01-16T03:11:17;5.60;;;2.83;;
17892;SDS011;9072;51.918;4.380;2024-01-16T03:13:45;5.83;;;2.67;;
17892;SDS011;9072;51.918;4.380;2024-01-16T03:16:15;8.47;;;2.63;;
17892;SDS011;9072;51.918;4.380;2024-01-16T03:18:43;9.27;;;2.60;;
17892;SDS011;9072;51.918;4.380;2024-01-16T03:21:10;10.00;;;2.53;;
17892;SDS011;9072;51.918;4.380;2024-01-16T03:23:39;8.33;;;2.30;;
17892;SDS011;9072;51.918;4.380;2024-01-16T03:26:06;8.90;;;2.67;;
17892;SDS011;9072;51.918;4.380;2024-01-16T03:28:37;8.63;;;2.67;;
17892;SDS011;9072;51.918;4.380;2024-01-16T03:31:05;11.53;;;2.83;;
17892;SDS011;9072;51.918;4.380;2024-01-16T03:33:34;11.23;;;3.00;;
17892;SDS011;9072;51.918;4.380;2024-01-16T03:36:07;7.33;;;2.40;;
17892;SDS011;9072;51.918;4.380;2024-01-16T03:38:35;6.60;;;2.67;;
17892;SDS011;9072;51.918;4.380;2024-01-16T03:41:03;10.13;;;3.17;;
17892;SDS011;9072;51.918;4.380;2024-01-16T03:43:32;9.27;;;2.90;;
17892;SDS011;9072;51.918;4.380;2024-01-16T03:45:59;8.50;;;2.63;;
17892;SDS011;9072;51.918;4.380;2024-01-16T03:48:27;8.07;;;2.70;;
17892;SDS011;9072;51.918;4.380;2024-01-16T03:50:56;13.57;;;2.90;;
17892;SDS011;9072;51.918;4.380;2024-01-16T03:53:23;6.70;;;2.43;;
17892;SDS011;9072;51.918;4.380;2024-01-16T03:55:50;9.47;;;2.70;;
17892;SDS011;9072;51.918;4.380;2024-01-16T03:58:18;7.10;;;2.40;;
17892;SDS011;9072;51.918;4.380;2024-01-16T04:00:45;9.87;;;2.50;;
17892;SDS011;9072;51.918;4.380;2024-01-16T04:03:15;9.13;;;2.60;;
17892;SDS011;9072;51.918;4.380;2024-01-16T04:05:43;10.80;;;2.67;;
17892;SDS011;9072;51.918;4.380;2024-01-16T04:08:11;10.43;;;3.10;;
17892;SDS011;9072;51.918;4.380;2024-01-16T04:10:38;11.87;;;3.07;;
17892;SDS011;9072;51.918;4.380;2024-01-16T04:13:07;7.27;;;2.40;;
17892;SDS011;9072;51.918;4.380;2024-01-16T04:15:37;8.10;;;2.67;;
17892;SDS011;9072;51.918;4.380;2024-01-16T04:18:05;6.23;;;2.60;;
17892;SDS011;9072;51.918;4.380;2024-01-16T04:20:32;11.50;;;2.40;;
17892;SDS011;9072;51.918;4.380;2024-01-16T04:22:59;10.77;;;2.50;;
17892;SDS011;9072;51.918;4.380;2024-01-16T04:25:28;8.73;;;2.50;;
17892;SDS011;9072;51.918;4.380;2024-01-16T04:27:55;6.13;;;2.50;;
17892;SDS011;9072;51.918;4.380;2024-01-16T04:30:22;9.87;;;2.50;;
17892;SDS011;9072;51.918;4.380;2024-01-16T04:32:49;12.27;;;2.90;;
17892;SDS011;9072;51.918;4.380;2024-01-16T04:35:17;8.00;;;2.53;;
17892;SDS011;9072;51.918;4.380;2024-01-16T04:37:44;11.70;;;2.50;;
17892;SDS011;9072;51.918;4.380;2024-01-16T04:40:11;12.00;;;2.60;;
17892;SDS011;9072;51.918;4.380;2024-01-16T04:42:40;7.33;;;2.13;;
17892;SDS011;9072;51.918;4.380;2024-01-16T04:45:07;9.63;;;2.80;;
17892;SDS011;9072;51.918;4.380;2024-01-16T04:47:35;6.57;;;2.50;;
17892;SDS011;9072;51.918;4.380;2024-01-16T04:50:03;7.27;;;2.57;;
17892;SDS011;9072;51.918;4.380;2024-01-16T04:52:30;8.97;;;2.83;;
17892;SDS011;9072;51.918;4.380;2024-01-16T04:54:57;5.10;;;2.37;;
17892;SDS011;9072;51.918;4.380;2024-01-16T04:57:24;7.90;;;2.77;;
17892;SDS011;9072;51.918;4.380;2024-01-16T04:59:53;11.33;;;3.13;;
17892;SDS011;9072;51.918;4.380;2024-01-16T05:02:22;13.07;;;3.13;;
17892;SDS011;9072;51.918;4.380;2024-01-16T05:04:50;7.77;;;2.50;;
17892;SDS011;9072;51.918;4.380;2024-01-16T05:07:20;10.17;;;2.80;;
17892;SDS011;9072;51.918;4.380;2024-01-16T05:09:49;10.20;;;3.20;;
17892;SDS011;9072;51.918;4.380;2024-01-16T05:12:16;9.43;;;2.73;;
17892;SDS011;9072;51.918;4.380;2024-01-16T05:14:43;7.93;;;3.03;;
17892;SDS011;9072;51.918;4.380;2024-01-16T05:17:12;6.90;;;2.60;;
17892;SDS011;9072;51.918;4.380;2024-01-16T05:19:39;8.27;;;3.07;;
17892;SDS011;9072;51.918;4.380;2024-01-16T05:22:07;9.23;;;3.10;;
17892;SDS011;9072;51.918;4.380;2024-01-16T05:24:36;9.87;;;3.10;;
17892;SDS011;9072;51.918;4.380;2024-01-16T05:27:03;7.73;;;2.63;;
17892;SDS011;9072;51.918;4.380;2024-01-16T05:29:31;8.87;;;3.20;;
17892;SDS011;9072;51.918;4.380;2024-01-16T05:31:58;10.73;;;2.90;;
17892;SDS011;9072;51.918;4.380;2024-01-16T05:34:27;9.23;;;2.80;;
17892;SDS011;9072;51.918;4.380;2024-01-16T05:36:54;8.97;;;2.90;;
17892;SDS011;9072;51.918;4.380;2024-01-16T05:39:21;6.00;;;2.47;;
17892;SDS011;9072;51.918;4.380;2024-01-16T05:41:50;5.73;;;2.93;;
17892;SDS011;9072;51.918;4.380;2024-01-16T05:44:18;11.47;;;3.33;;
17892;SDS011;9072;51.918;4.380;2024-01-16T05:46:45;10.50;;;4.43;;
17892;SDS011;9072;51.918;4.380;2024-01-16T05:49:12;10.10;;;3.30;;
17892;SDS011;9072;51.918;4.380;2024-01-16T05:51:42;11.30;;;3.30;;
17892;SDS011;9072;51.918;4.380;2024-01-16T05:54:09;9.60;;;3.20;;
17892;SDS011;9072;51.918;4.380;2024-01-16T05:56:36;7.13;;;3.10;;
17892;SDS011;9072;51.918;4.380;2024-01-16T05:59:03;13.63;;;3.27;;
17892;SDS011;9072;51.918;4.380;2024-01-16T06:01:32;8.93;;;3.43;;
17892;SDS011;9072;51.918;4.380;2024-01-16T06:03:59;7.77;;;2.80;;
17892;SDS011;9072;51.918;4.380;2024-01-16T06:06:26;6.03;;;2.90;;
17892;SDS011;9072;51.918;4.380;2024-01-16T06:08:55;10.23;;;3.37;;
17892;SDS011;9072;51.918;4.380;2024-01-16T06:11:29;9.53;;;3.10;;
17892;SDS011;9072;51.918;4.380;2024-01-16T06:13:56;8.70;;;3.10;;
17892;SDS011;9072;51.918;4.380;2024-01-16T06:16:24;7.67;;;3.17;;
17892;SDS011;9072;51.918;4.380;2024-01-16T06:18:51;13.23;;;3.20;;
17892;SDS011;9072;51.918;4.380;2024-01-16T06:21:19;8.17;;;2.77;;
17892;SDS011;9072;51.918;4.380;2024-01-16T06:23:46;8.53;;;3.43;;
17892;SDS011;9072;51.918;4.380;2024-01-16T06:26:14;8.33;;;3.13;;
17892;SDS011;9072;51.918;4.380;2024-01-16T06:28:41;10.03;;;3.23;;
17892;SDS011;9072;51.918;4.380;2024-01-16T06:31:08;10.67;;;3.33;;
17892;SDS011;9072;51.918;4.380;2024-01-16T06:33:36;5.23;;;3.33;;
17892;SDS011;9072;51.918;4.380;2024-01-16T06:36:03;8.87;;;3.20;;
17892;SDS011;9072;51.918;4.380;2024-01-16T06:38:33;11.07;;;4.13;;
17892;SDS011;9072;51.918;4.380;2024-01-16T06:41:11;9.30;;;3.70;;
17892;SDS011;9072;51.918;4.380;2024-01-16T06:43:40;10.13;;;3.30;;
17892;SDS011;9072;51.918;4.380;2024-01-16T06:46:07;8.87;;;3.23;;
17892;SDS011;9072;51.918;4.380;2024-01-16T06:48:36;6.73;;;3.23;;
17892;SDS011;9072;51.918;4.380;2024-01-16T06:51:04;6.70;;;2.90;;
17892;SDS011;9072;51.918;4.380;2024-01-16T06:53:33;7.53;;;3.07;;
17892;SDS011;9072;51.918;4.380;2024-01-16T06:56:02;7.47;;;3.03;;
17892;SDS011;9072;51.918;4.380;2024-01-16T06:58:32;9.20;;;3.10;;
17892;SDS011;9072;51.918;4.380;2024-01-16T07:01:05;7.30;;;2.57;;
17892;SDS011;9072;51.918;4.380;2024-01-16T07:03:34;10.17;;;3.43;;
17892;SDS011;9072;51.918;4.380;2024-01-16T07:06:01;10.80;;;2.97;;
17892;SDS011;9072;51.918;4.380;2024-01-16T07:08:28;12.40;;;3.40;;
17892;SDS011;9072;51.918;4.380;2024-01-16T07:10:58;8.17;;;3.20;;
17892;SDS011;9072;51.918;4.380;2024-01-16T07:13:29;11.67;;;3.80;;
17892;SDS011;9072;51.918;4.380;2024-01-16T07:15:56;8.33;;;3.57;;
17892;SDS011;9072;51.918;4.380;2024-01-16T07:18:24;7.90;;;3.10;;
17892;SDS011;9072;51.918;4.380;2024-01-16T07:20:53;9.00;;;3.33;;
17892;SDS011;9072;51.918;4.380;2024-01-16T07:23:22;9.00;;;3.67;;
17892;SDS011;9072;51.918;4.380;2024-01-16T07:25:49;11.43;;;4.10;;
17892;SDS011;9072;51.918;4.380;2024-01-16T07:28:19;8.57;;;3.23;;
17892;SDS011;9072;51.918;4.380;2024-01-16T07:30:47;5.80;;;2.97;;
17892;SDS011;9072;51.918;4.380;2024-01-16T07:33:14;7.90;;;3.23;;
17892;SDS011;9072;51.918;4.380;2024-01-16T07:35:43;7.53;;;3.27;;
17892;SDS011;9072;51.918;4.380;2024-01-16T07:38:13;7.43;;;3.43;;
17892;SDS011;9072;51.918;4.380;2024-01-16T07:40:40;9.50;;;3.77;;
17892;SDS011;9072;51.918;4.380;2024-01-16T07:43:07;10.50;;;3.37;;
17892;SDS011;9072;51.918;4.380;2024-01-16T07:45:34;7.93;;;3.63;;
17892;SDS011;9072;51.918;4.380;2024-01-16T07:48:01;7.33;;;3.60;;
17892;SDS011;9072;51.918;4.380;2024-01-16T07:50:32;10.43;;;3.17;;
17892;SDS011;9072;51.918;4.380;2024-01-16T07:53:00;6.23;;;2.90;;
17892;SDS011;9072;51.918;4.380;2024-01-16T07:55:31;5.50;;;3.30;;
17892;SDS011;9072;51.918;4.380;2024-01-16T07:57:58;10.27;;;3.57;;
17892;SDS011;9072;51.918;4.380;2024-01-16T08:00:25;9.83;;;3.57;;
17892;SDS011;9072;51.918;4.380;2024-01-16T08:02:52;9.77;;;3.30;;
17892;SDS011;9072;51.918;4.380;2024-01-16T08:05:19;4.67;;;3.20;;
17892;SDS011;9072;51.918;4.380;2024-01-16T08:07:50;9.30;;;3.30;;
17892;SDS011;9072;51.918;4.380;2024-01-16T08:10:19;5.73;;;3.10;;
17892;SDS011;9072;51.918;4.380;2024-01-16T08:12:46;9.23;;;3.47;;
17892;SDS011;9072;51.918;4.380;2024-01-16T08:15:13;7.83;;;3.50;;
17892;SDS011;9072;51.918;4.380;2024-01-16T08:17:41;9.40;;;3.80;;
17892;SDS011;9072;51.918;4.380;2024-01-16T08:20:08;9.93;;;3.77;;
17892;SDS011;9072;51.918;4.380;2024-01-16T08:22:36;10.10;;;3.33;;
17892;SDS011;9072;51.918;4.380;2024-01-16T08:25:04;5.77;;;2.97;;
17892;SDS011;9072;51.918;4.380;2024-01-16T08:27:37;10.00;;;3.60;;
17892;SDS011;9072;51.918;4.380;2024-01-16T08:30:05;6.57;;;2.90;;
17892;SDS011;9072;51.918;4.380;2024-01-16T08:32:33;7.73;;;3.50;;
17892;SDS011;9072;51.918;4.380;2024-01-16T08:35:00;5.00;;;2.80;;
17892;SDS011;9072;51.918;4.380;2024-01-16T08:37:27;11.10;;;2.97;;
17892;SDS011;9072;51.918;4.380;2024-01-16T08:39:58;6.20;;;3.53;;
17892;SDS011;9072;51.918;4.380;2024-01-16T08:42:25;7.57;;;3.20;;
17892;SDS011;9072;51.918;4.380;2024-01-16T08:44:54;7.83;;;3.40;;
17892;SDS011;9072;51.918;4.380;2024-01-16T08:47:21;5.90;;;3.20;;
17892;SDS011;9072;51.918;4.380;2024-01-16T08:49:48;4.70;;;2.90;;
17892;SDS011;9072;51.918;4.380;2024-01-16T08:52:15;6.67;;;3.17;;
17892;SDS011;9072;51.918;4.380;2024-01-16T08:54:46;11.47;;;3.57;;
17892;SDS011;9072;51.918;4.380;2024-01-16T08:57:13;8.20;;;3.50;;
17892;SDS011;9072;51.918;4.380;2024-01-16T08:59:43;5.63;;;3.30;;
17892;SDS011;9072;51.918;4.380;2024-01-16T09:02:12;7.80;;;3.37;;
17892;SDS011;9072;51.918;4.380;2024-01-16T09:04:39;11.50;;;4.07;;
17892;SDS011;9072;51.918;4.380;2024-01-16T09:07:06;7.60;;;3.53;;
17892;SDS011;9072;51.918;4.380;2024-01-16T09:09:33;7.03;;;3.63;;
17892;SDS011;9072;51.918;4.380;2024-01-16T09:12:01;7.73;;;3.80;;
17892;SDS011;9072;51.918;4.380;2024-01-16T09:14:28;5.67;;;4.10;;
17892;SDS011;9072;51.918;4.380;2024-01-16T09:16:55;6.57;;;3.73;;
17892;SDS011;9072;51.918;4.380;2024-01-16T09:19:24;8.37;;;4.00;;
17892;SDS011;9072;51.918;4.380;2024-01-16T09:21:51;9.67;;;3.70;;
17892;SDS011;9072;51.918;4.380;2024-01-16T09:24:18;6.30;;;3.80;;
17892;SDS011;9072;51.918;4.380;2024-01-16T09:26:47;5.73;;;3.90;;
17892;SDS011;9072;51.918;4.380;2024-01-16T09:29:14;7.40;;;4.10;;
17892;SDS011;9072;51.918;4.380;2024-01-16T09:31:41;9.47;;;4.53;;
17892;SDS011;9072;51.918;4.380;2024-01-16T09:34:09;11.83;;;4.63;;
17892;SDS011;9072;51.918;4.380;2024-01-16T09:36:39;10.30;;;4.80;;
17892;SDS011;9072;51.918;4.380;2024-01-16T09:39:07;6.70;;;4.60;;
17892;SDS011;9072;51.918;4.380;2024-01-16T09:41:36;9.23;;;4.50;;
17892;SDS011;9072;51.918;4.380;2024-01-16T09:44:03;7.10;;;4.40;;
17892;SDS011;9072;51.918;4.380;2024-01-16T09:46:32;11.47;;;4.67;;
17892;SDS011;9072;51.918;4.380;2024-01-16T09:49:01;8.07;;;4.53;;
17892;SDS011;9072;51.918;4.380;2024-01-16T09:51:28;8.90;;;4.73;;
17892;SDS011;9072;51.918;4.380;2024-01-16T09:53:59;7.50;;;5.00;;
17892;SDS011;9072;51.918;4.380;2024-01-16T09:56:27;6.43;;;4.30;;
17892;SDS011;9072;51.918;4.380;2024-01-16T09:58:57;7.43;;;5.10;;
17892;SDS011;9072;51.918;4.380;2024-01-16T10:01:32;6.90;;;4.47;;
17892;SDS011;9072;51.918;4.380;2024-01-16T10:04:00;7.07;;;4.43;;
17892;SDS011;9072;51.918;4.380;2024-01-16T10:06:28;9.50;;;4.50;;
17892;SDS011;9072;51.918;4.380;2024-01-16T10:09:02;11.30;;;4.67;;
17892;SDS011;9072;51.918;4.380;2024-01-16T10:11:31;9.83;;;4.53;;
17892;SDS011;9072;51.918;4.380;2024-01-16T10:14:00;7.20;;;4.47;;
17892;SDS011;9072;51.918;4.380;2024-01-16T10:19:22;8.53;;;4.43;;
17892;SDS011;9072;51.918;4.380;2024-01-16T10:21:49;7.30;;;4.13;;
17892;SDS011;9072;51.918;4.380;2024-01-16T10:24:19;6.53;;;4.27;;
17892;SDS011;9072;51.918;4.380;2024-01-16T10:26:46;6.93;;;3.83;;
17892;SDS011;9072;51.918;4.380;2024-01-16T10:29:25;5.20;;;4.00;;
17892;SDS011;9072;51.918;4.380;2024-01-16T10:31:54;7.50;;;3.83;;
17892;SDS011;9072;51.918;4.380;2024-01-16T10:34:22;8.13;;;4.70;;
17892;SDS011;9072;51.918;4.380;2024-01-16T10:36:50;6.53;;;4.00;;
17892;SDS011;9072;51.918;4.380;2024-01-16T10:39:19;8.80;;;4.30;;
17892;SDS011;9072;51.918;4.380;2024-01-16T10:41:53;12.80;;;4.30;;
17892;SDS011;9072;51.918;4.380;2024-01-16T10:44:21;6.10;;;4.23;;
17892;SDS011;9072;51.918;4.380;2024-01-16T10:46:48;6.60;;;3.63;;
17892;SDS011;9072;51.918;4.380;2024-01-16T10:49:16;6.33;;;3.53;;
17892;SDS011;9072;51.918;4.380;2024-01-16T10:51:43;6.87;;;4.03;;
17892;SDS011;9072;51.918;4.380;2024-01-16T10:54:14;7.93;;;4.00;;
17892;SDS011;9072;51.918;4.380;2024-01-16T10:56:47;8.07;;;3.80;;
17892;SDS011;9072;51.918;4.380;2024-01-16T10:59:18;6.30;;;3.53;;
17892;SDS011;9072;51.918;4.380;2024-01-16T11:01:51;7.77;;;3.87;;
17892;SDS011;9072;51.918;4.380;2024-01-16T11:04:30;5.90;;;3.70;;
17892;SDS011;9072;51.918;4.380;2024-01-16T11:06:58;9.90;;;4.33;;
17892;SDS011;9072;51.918;4.380;2024-01-16T11:09:28;6.93;;;3.70;;
17892;SDS011;9072;51.918;4.380;2024-01-16T11:12:16;6.67;;;3.80;;
17892;SDS011;9072;51.918;4.380;2024-01-16T11:14:44;6.63;;;4.10;;
17892;SDS011;9072;51.918;4.380;2024-01-16T11:17:17;5.50;;;3.43;;
17892;SDS011;9072;51.918;4.380;2024-01-16T11:19:48;7.23;;;4.07;;
17892;SDS011;9072;51.918;4.380;2024-01-16T11:22:17;5.83;;;4.20;;
17892;SDS011;9072;51.918;4.380;2024-01-16T11:24:45;7.57;;;3.93;;
17892;SDS011;9072;51.918;4.380;2024-01-16T11:27:31;6.93;;;4.10;;
17892;SDS011;9072;51.918;4.380;2024-01-16T11:29:58;7.87;;;4.00;;
17892;SDS011;9072;51.918;4.380;2024-01-16T11:32:35;8.40;;;3.80;;
17892;SDS011;9072;51.918;4.380;2024-01-16T11:35:03;5.67;;;4.33;;
17892;SDS011;9072;51.918;4.380;2024-01-16T11:37:31;9.43;;;4.10;;
17892;SDS011;9072;51.918;4.380;2024-01-16T11:42:54;9.07;;;4.17;;
17892;SDS011;9072;51.918;4.380;2024-01-16T11:48:16;9.03;;;3.60;;
17892;SDS011;9072;51.918;4.380;2024-01-16T11:50:47;7.60;;;3.80;;
17892;SDS011;9072;51.918;4.380;2024-01-16T11:53:34;9.53;;;3.50;;
17892;SDS011;9072;51.918;4.380;2024-01-16T12:02:21;8.70;;;3.43;;
17892;SDS011;9072;51.918;4.380;2024-01-16T12:04:53;7.30;;;3.90;;
17892;SDS011;9072;51.918;4.380;2024-01-16T12:07:21;8.47;;;4.20;;
17892;SDS011;9072;51.918;4.380;2024-01-16T12:09:50;8.17;;;4.40;;
17892;SDS011;9072;51.918;4.380;2024-01-16T12:12:17;7.90;;;4.80;;
17892;SDS011;9072;51.918;4.380;2024-01-16T12:14:55;8.03;;;4.50;;
17892;SDS011;9072;51.918;4.380;2024-01-16T12:17:23;9.63;;;4.20;;
17892;SDS011;9072;51.918;4.380;2024-01-16T12:19:50;10.10;;;4.20;;
17892;SDS011;9072;51.918;4.380;2024-01-16T12:22:17;7.27;;;4.13;;
17892;SDS011;9072;51.918;4.380;2024-01-16T12:24:47;5.53;;;3.57;;
17892;SDS011;9072;51.918;4.380;2024-01-16T12:27:15;6.07;;;3.60;;
17892;SDS011;9072;51.918;4.380;2024-01-16T12:29:42;6.20;;;4.03;;
17892;SDS011;9072;51.918;4.380;2024-01-16T12:32:10;7.57;;;4.03;;
17892;SDS011;9072;51.918;4.380;2024-01-16T12:34:45;7.87;;;4.20;;
17892;SDS011;9072;51.918;4.380;2024-01-16T12:37:13;8.47;;;4.77;;
17892;SDS011;9072;51.918;4.380;2024-01-16T12:39:40;7.03;;;3.67;;
17892;SDS011;9072;51.918;4.380;2024-01-16T12:42:17;8.73;;;4.13;;
17892;SDS011;9072;51.918;4.380;2024-01-16T12:44:44;8.93;;;4.60;;
17892;SDS011;9072;51.918;4.380;2024-01-16T12:47:14;8.67;;;4.17;;
17892;SDS011;9072;51.918;4.380;2024-01-16T12:49:45;8.83;;;5.10;;
17892;SDS011;9072;51.918;4.380;2024-01-16T12:52:19;9.23;;;4.70;;
17892;SDS011;9072;51.918;4.380;2024-01-16T12:54:47;7.50;;;4.50;;
17892;SDS011;9072;51.918;4.380;2024-01-16T12:57:18;5.80;;;3.53;;
17892;SDS011;9072;51.918;4.380;2024-01-16T12:59:46;8.33;;;3.93;;
17892;SDS011;9072;51.918;4.380;2024-01-16T13:02:21;6.00;;;3.93;;
17892;SDS011;9072;51.918;4.380;2024-01-16T13:04:57;6.50;;;4.53;;
17892;SDS011;9072;51.918;4.380;2024-01-16T13:07:25;7.60;;;3.67;;
17892;SDS011;9072;51.918;4.380;2024-01-16T13:10:05;8.73;;;4.23;;
17892;SDS011;9072;51.918;4.380;2024-01-16T13:12:33;8.67;;;4.23;;
17892;SDS011;9072;51.918;4.380;2024-01-16T13:15:01;7.23;;;3.60;;
17892;SDS011;9072;51.918;4.380;2024-01-16T13:17:31;8.33;;;3.77;;
17892;SDS011;9072;51.918;4.380;2024-01-16T13:20:01;7.33;;;3.93;;
17892;SDS011;9072;51.918;4.380;2024-01-16T13:22:32;8.63;;;3.80;;
17892;SDS011;9072;51.918;4.380;2024-01-16T13:24:59;8.10;;;4.67;;
17892;SDS011;9072;51.918;4.380;2024-01-16T13:27:27;6.50;;;4.80;;
17892;SDS011;9072;51.918;4.380;2024-01-16T13:29:55;11.47;;;4.93;;
17892;SDS011;9072;51.918;4.380;2024-01-16T13:32:25;8.57;;;5.23;;
17892;SDS011;9072;51.918;4.380;2024-01-16T13:34:53;9.10;;;6.00;;
17892;SDS011;9072;51.918;4.380;2024-01-16T13:37:22;10.93;;;5.63;;
17892;SDS011;9072;51.918;4.380;2024-01-16T13:39:49;10.47;;;4.97;;
17892;SDS011;9072;51.918;4.380;2024-01-16T13:42:16;6.57;;;4.40;;
17892;SDS011;9072;51.918;4.380;2024-01-16T13:44:45;12.50;;;4.40;;
17892;SDS011;9072;51.918;4.380;2024-01-16T13:47:13;5.33;;;3.40;;
17892;SDS011;9072;51.918;4.380;2024-01-16T13:49:43;7.30;;;3.77;;
17892;SDS011;9072;51.918;4.380;2024-01-16T13:52:11;12.97;;;4.03;;
17892;SDS011;9072;51.918;4.380;2024-01-16T13:54:40;5.37;;;3.50;;
17892;SDS011;9072;51.918;4.380;2024-01-16T13:57:07;6.33;;;3.77;;
17892;SDS011;9072;51.918;4.380;2024-01-16T13:59:34;9.43;;;4.00;;
17892;SDS011;9072;51.918;4.380;2024-01-16T14:02:02;7.40;;;3.50;;
17892;SDS011;9072;51.918;4.380;2024-01-16T14:04:29;6.27;;;3.43;;
17892;SDS011;9072;51.918;4.380;2024-01-16T14:06:56;7.60;;;3.60;;
17892;SDS011;9072;51.918;4.380;2024-01-16T14:09:23;7.10;;;3.10;;
17892;SDS011;9072;51.918;4.380;2024-01-16T14:11:52;9.87;;;3.50;;
17892;SDS011;9072;51.918;4.380;2024-01-16T14:14:19;7.57;;;3.10;;
17892;SDS011;9072;51.918;4.380;2024-01-16T14:16:46;6.57;;;3.10;;
17892;SDS011;9072;51.918;4.380;2024-01-16T14:19:14;7.40;;;3.30;;
17892;SDS011;9072;51.918;4.380;2024-01-16T14:21:43;7.30;;;3.30;;
17892;SDS011;9072;51.918;4.380;2024-01-16T14:24:10;5.13;;;3.03;;
17892;SDS011;9072;51.918;4.380;2024-01-16T14:26:41;6.20;;;3.10;;
17892;SDS011;9072;51.918;4.380;2024-01-16T14:29:13;5.70;;;3.00;;
17892;SDS011;9072;51.918;4.380;2024-01-16T14:31:40;6.63;;;3.57;;
17892;SDS011;9072;51.918;4.380;2024-01-16T14:34:09;4.23;;;3.00;;
17892;SDS011;9072;51.918;4.380;2024-01-16T14:36:39;4.63;;;3.00;;
17892;SDS011;9072;51.918;4.380;2024-01-16T14:39:09;4.33;;;2.90;;
17892;SDS011;9072;51.918;4.380;2024-01-16T14:41:38;6.27;;;2.70;;
17892;SDS011;9072;51.918;4.380;2024-01-16T14:44:07;6.47;;;2.93;;
17892;SDS011;9072;51.918;4.380;2024-01-16T14:46:36;6.43;;;3.50;;
17892;SDS011;9072;51.918;4.380;2024-01-16T14:49:03;6.57;;;3.50;;
17892;SDS011;9072;51.918;4.380;2024-01-16T14:51:31;10.63;;;3.40;;
17892;SDS011;9072;51.918;4.380;2024-01-16T14:54:06;7.23;;;2.97;;
17892;SDS011;9072;51.918;4.380;2024-01-16T14:56:37;10.53;;;3.97;;
17892;SDS011;9072;51.918;4.380;2024-01-16T14:59:04;9.80;;;4.10;;
17892;SDS011;9072;51.918;4.380;2024-01-16T15:01:31;6.37;;;3.37;;
17892;SDS011;9072;51.918;4.380;2024-01-16T15:03:59;6.07;;;3.17;;
17892;SDS011;9072;51.918;4.380;2024-01-16T15:06:27;5.63;;;3.73;;
17892;SDS011;9072;51.918;4.380;2024-01-16T15:08:54;5.23;;;3.40;;
17892;SDS011;9072;51.918;4.380;2024-01-16T15:11:22;7.03;;;3.80;;
17892;SDS011;9072;51.918;4.380;2024-01-16T15:13:50;8.77;;;4.53;;
17892;SDS011;9072;51.918;4.380;2024-01-16T15:16:23;9.00;;;3.77;;
17892;SDS011;9072;51.918;4.380;2024-01-16T15:18:51;8.27;;;4.27;;
17892;SDS011;9072;51.918;4.380;2024-01-16T15:21:19;8.37;;;4.27;;